Time;durP1;ratioP1;P1;durP2;ratioP2;P2;SDS_P1;SDS_P2;PMS_P1;PMS_P2;Temp;Humidity;BMP_temperature;BMP_pressure;BME280_temperature;BME280_humidity;BME280_pressure;Samples;Min_cycle;Max_cycle;Signal;HPM_P1;HPM_P2
2023/01/26 00:01:55;;;;;;;83.17;39.27;;;;;;;-1.47;100.00;101155.41;4999197;28;20483;-76
2023/01/26 00:04:22;;;;;;;95.60;39.37;;;;;;;-1.45;100.00;101159.69;5003072;28;20476;-76
2023/01/26 00:06:49;;;;;;;89.07;40.05;;;;;;;-1.36;100.00;101154.19;5003735;28;20471;-75
2023/01/26 00:09:16;;;;;;;91.87;40.00;;;;;;;-1.28;100.00;101150.50;5002166;28;20276;-73
2023/01/26 00:11:42;;;;;;;87.00;39.72;;;;;;;-1.19;100.00;101148.47;4996723;28;20495;-73
2023/01/26 00:14:09;;;;;;;84.33;40.70;;;;;;;-1.22;100.00;101145.94;5002351;28;20209;-73
2023/01/26 00:16:37;;;;;;;82.87;37.97;;;;;;;-1.26;100.00;101139.06;5003664;28;20467;-73
2023/01/26 00:19:04;;;;;;;86.80;39.50;;;;;;;-1.10;100.00;101136.00;4993813;28;20507;-74
2023/01/26 00:21:31;;;;;;;81.63;37.25;;;;;;;-1.26;100.00;101133.81;4999274;28;20480;-74
2023/01/26 00:23:58;;;;;;;82.87;36.50;;;;;;;-1.37;100.00;101117.50;5004846;28;20689;-74
2023/01/26 00:26:26;;;;;;;78.03;38.10;;;;;;;-1.60;100.00;101111.13;5004054;28;20535;-74
2023/01/26 00:28:53;;;;;;;85.70;37.93;;;;;;;-1.46;100.00;101116.00;5004226;28;20531;-75
2023/01/26 00:31:21;;;;;;;87.30;37.93;;;;;;;-1.36;100.00;101116.59;5003356;28;20476;-74
2023/01/26 00:33:49;;;;;;;88.20;37.60;;;;;;;-1.63;100.00;101118.22;5004164;28;20487;-75
2023/01/26 00:36:16;;;;;;;100.97;40.23;;;;;;;-1.43;100.00;101112.44;5000677;28;20514;-74
2023/01/26 00:38:43;;;;;;;95.10;41.35;;;;;;;-1.49;100.00;101099.50;5003928;28;20500;-74
2023/01/26 00:42:05;;;;;;;92.53;39.60;;;;;;;-1.65;100.00;101094.69;5003249;28;20263;-74
2023/01/26 00:43:57;;;;;;;82.23;39.70;;;;;;;-1.53;100.00;101091.72;5003311;28;20468;-74
2023/01/26 00:46:24;;;;;;;98.57;40.33;;;;;;;-1.47;100.00;101089.84;5002286;28;21023;-74
2023/01/26 00:48:52;;;;;;;94.17;42.23;;;;;;;-1.40;100.00;101092.22;5002044;28;20982;-74
2023/01/26 00:51:19;;;;;;;93.67;38.53;;;;;;;-1.46;100.00;101094.16;4997391;28;20543;-73
2023/01/26 00:53:46;;;;;;;89.63;38.93;;;;;;;-1.47;100.00;101087.22;5004584;28;20495;-74
2023/01/26 00:56:13;;;;;;;83.57;41.03;;;;;;;-1.35;100.00;101085.09;5002735;28;20480;-74
2023/01/26 00:58:41;;;;;;;96.30;43.50;;;;;;;-1.38;100.00;101084.31;4987830;28;20507;-73
2023/01/26 01:01:07;;;;;;;98.00;40.60;;;;;;;-1.50;100.00;101084.69;4999165;28;20858;-74
2023/01/26 01:03:34;;;;;;;91.80;40.33;;;;;;;-1.44;100.00;101092.34;5003256;28;20487;-76
2023/01/26 01:06:02;;;;;;;91.77;39.70;;;;;;;-1.66;100.00;101079.84;5001810;28;20475;-75
2023/01/26 01:08:29;;;;;;;94.33;37.90;;;;;;;-1.70;100.00;101067.75;4995780;28;20457;-75
2023/01/26 01:11:03;;;;;;;93.80;38.92;;;;;;;-1.73;100.00;101073.06;5003633;28;20507;-75
2023/01/26 01:13:30;;;;;;;96.20;40.00;;;;;;;-1.55;100.00;101072.53;5003350;28;20205;-75
2023/01/26 01:15:56;;;;;;;99.60;41.07;;;;;;;-1.58;100.00;101069.13;5002414;28;20550;-75
2023/01/26 01:18:23;;;;;;;98.67;38.20;;;;;;;-1.42;100.00;101067.81;5002565;28;20492;-75
2023/01/26 01:20:50;;;;;;;96.43;40.53;;;;;;;-1.45;100.00;101062.66;4996990;28;20507;-76
2023/01/26 01:23:18;;;;;;;96.30;39.73;;;;;;;-1.44;100.00;101055.63;5003495;28;20483;-76
2023/01/26 01:25:46;;;;;;;94.80;40.67;;;;;;;-1.46;100.00;101060.06;5002423;28;20511;-75
2023/01/26 01:28:12;;;;;;;82.23;38.20;;;;;;;-1.41;100.00;101060.78;5003529;28;20544;-75
2023/01/26 01:30:39;;;;;;;95.83;38.10;;;;;;;-1.39;100.00;101046.75;5000384;28;20476;-75
2023/01/26 01:33:06;;;;;;;95.80;40.20;;;;;;;-1.33;100.00;101056.19;5003550;28;21011;-75
2023/01/26 01:35:34;;;;;;;93.47;40.00;;;;;;;-1.22;100.00;101056.72;5002778;28;20472;-75
2023/01/26 01:38:01;;;;;;;82.60;35.57;;;;;;;-1.35;100.00;101058.00;5003164;28;20491;-77
2023/01/26 01:40:29;;;;;;;93.27;38.87;;;;;;;-1.48;100.00;101056.63;5002774;28;20570;-76
2023/01/26 01:42:56;;;;;;;96.23;39.67;;;;;;;-1.59;100.00;101049.94;5003196;28;20451;-77
2023/01/26 01:45:43;;;;;;;90.93;38.80;;;;;;;-1.64;100.00;101062.31;5001439;28;20509;-77
2023/01/26 01:48:15;;;;;;;100.43;39.50;;;;;;;-1.44;100.00;101055.63;5002197;28;20456;-76
2023/01/26 01:50:42;;;;;;;106.20;40.37;;;;;;;-1.50;100.00;101058.44;4993700;28;20551;-76
2023/01/26 01:53:13;;;;;;;87.83;38.30;;;;;;;-1.27;100.00;101065.66;4998300;28;20483;-76
2023/01/26 01:55:41;;;;;;;96.37;36.23;;;;;;;-1.28;100.00;101059.53;4994428;28;20476;-76
2023/01/26 01:58:09;;;;;;;94.53;38.93;;;;;;;-1.25;100.00;101059.47;4999593;28;20554;-77
2023/01/26 02:00:36;;;;;;;86.07;37.87;;;;;;;-1.28;100.00;101056.91;5001690;28;20464;-75
2023/01/26 02:03:13;;;;;;;86.77;35.83;;;;;;;-1.15;100.00;101034.66;5002992;28;20485;-75
2023/01/26 02:05:45;;;;;;;96.63;38.53;;;;;;;-1.06;100.00;101038.78;4999375;28;20475;-75
2023/01/26 02:08:13;;;;;;;95.40;39.03;;;;;;;-1.01;100.00;101034.25;5003054;28;20479;-75
2023/01/26 02:10:42;;;;;;;85.40;37.60;;;;;;;-1.00;100.00;101038.56;5001650;28;20895;-76
2023/01/26 02:13:09;;;;;;;101.63;38.67;;;;;;;-1.04;100.00;101038.69;5002428;28;20616;-76
2023/01/26 02:15:36;;;;;;;89.83;36.37;;;;;;;-1.33;100.00;101049.19;4993336;28;20237;-75
2023/01/26 02:18:04;;;;;;;96.72;40.80;;;;;;;-1.21;100.00;101026.97;5002339;28;20495;-75
2023/01/26 02:20:36;;;;;;;97.97;37.53;;;;;;;-1.06;100.00;101030.91;5000712;28;20275;-75
2023/01/26 02:23:08;;;;;;;97.40;38.00;;;;;;;-1.07;100.00;101030.94;5002488;28;20475;-75
2023/01/26 02:25:44;;;;;;;102.57;39.80;;;;;;;-1.15;100.00;101031.16;4993890;28;20472;-75
2023/01/26 02:28:12;;;;;;;91.67;40.60;;;;;;;-1.17;100.00;101025.97;4998672;28;20506;-75
2023/01/26 02:30:39;;;;;;;94.33;40.43;;;;;;;-1.03;100.00;101027.31;4996070;28;20481;-75
2023/01/26 02:33:07;;;;;;;86.80;36.17;;;;;;;-1.13;100.00;101031.97;5002942;28;20511;-76
2023/01/26 02:35:33;;;;;;;97.43;39.70;;;;;;;-1.07;100.00;101026.56;5001509;28;21067;-76
2023/01/26 02:38:00;;;;;;;110.97;41.37;;;;;;;-1.19;100.00;101029.56;5003622;28;20499;-76
2023/01/26 02:40:34;;;;;;;105.10;41.23;;;;;;;-1.22;100.00;101024.38;5005860;28;20535;-75
2023/01/26 02:43:01;;;;;;;101.47;38.10;;;;;;;-1.31;100.00;101020.28;5006625;28;20436;-75
2023/01/26 02:45:30;;;;;;;104.20;40.90;;;;;;;-1.23;100.00;101018.28;5004895;28;20483;-74
2023/01/26 02:48:01;;;;;;;98.57;41.13;;;;;;;-1.15;100.00;101029.44;5006646;28;20491;-75
2023/01/26 02:50:27;;;;;;;110.30;41.57;;;;;;;-1.04;100.00;101022.97;5004176;28;20471;-75
2023/01/26 02:52:53;;;;;;;106.30;41.87;;;;;;;-1.18;100.00;101020.75;5005786;28;20514;-74
2023/01/26 02:55:23;;;;;;;103.70;40.57;;;;;;;-1.16;100.00;101018.97;4996806;28;20690;-75
2023/01/26 02:57:51;;;;;;;95.17;39.77;;;;;;;-1.25;100.00;101017.50;5003464;28;20520;-74
2023/01/26 03:00:19;;;;;;;90.97;39.07;;;;;;;-1.30;100.00;101021.13;4996407;28;20456;-75
2023/01/26 03:02:48;;;;;;;90.43;37.33;;;;;;;-1.41;100.00;101019.69;5006248;28;20440;-75
2023/01/26 03:05:15;;;;;;;92.97;38.60;;;;;;;-1.37;100.00;101020.44;5004395;28;20455;-74
2023/01/26 03:07:42;;;;;;;98.40;39.50;;;;;;;-1.34;100.00;101012.50;5006202;28;20455;-75
2023/01/26 03:10:09;;;;;;;90.70;37.50;;;;;;;-1.21;100.00;101023.50;5001754;28;20463;-74
2023/01/26 03:12:36;;;;;;;106.13;39.83;;;;;;;-1.23;100.00;101018.28;5006115;28;20849;-75
2023/01/26 03:17:50;;;;;;;91.33;37.50;;;;;;;-1.31;100.00;101022.91;4999383;28;20494;-74
2023/01/26 03:28:29;;;;;;;89.83;37.00;;;;;;;-1.19;100.00;101038.28;5004885;28;20472;-74
2023/01/26 03:30:57;;;;;;;94.03;35.47;;;;;;;-1.20;100.00;101027.81;5004588;28;20480;-75
2023/01/26 03:33:25;;;;;;;91.40;37.10;;;;;;;-1.22;100.00;101032.25;5004925;28;20456;-75
2023/01/26 03:35:53;;;;;;;101.80;39.23;;;;;;;-1.17;100.00;101025.09;5001061;28;20480;-75
2023/01/26 03:38:20;;;;;;;91.30;37.57;;;;;;;-1.18;100.00;101023.38;5002261;28;20991;-75
2023/01/26 03:57:13;;;;;;;80.00;36.53;;;;;;;-1.31;100.00;100993.19;5004696;28;20487;-75
2023/01/26 03:59:41;;;;;;;95.93;35.27;;;;;;;-1.27;100.00;100998.28;5004520;28;20487;-74
2023/01/26 04:10:25;;;;;;;89.70;35.97;;;;;;;-1.17;100.00;101002.34;5004226;28;21053;-75
2023/01/26 04:23:53;;;;;;;82.50;34.20;;;;;;;-1.13;100.00;100997.84;4992096;28;20504;-75
2023/01/26 04:26:20;;;;;;;95.30;37.10;;;;;;;-1.18;100.00;100992.78;5001633;28;20232;-75
2023/01/26 04:28:46;;;;;;;100.40;38.27;;;;;;;-1.09;100.00;100993.38;5003557;28;20460;-75
2023/01/26 04:31:15;;;;;;;94.43;39.43;;;;;;;-1.30;100.00;100987.91;4998641;28;20932;-75
2023/01/26 04:33:41;;;;;;;82.73;35.07;;;;;;;-1.38;100.00;100985.50;5004934;28;20498;-75
2023/01/26 04:36:10;;;;;;;89.80;36.73;;;;;;;-1.30;100.00;100995.78;5003380;28;20472;-75
2023/01/26 04:38:37;;;;;;;96.80;37.83;;;;;;;-1.27;100.00;100993.03;5003812;28;20535;-74
2023/01/26 04:41:04;;;;;;;98.23;38.07;;;;;;;-1.31;100.00;100988.81;4993839;28;20472;-75
2023/01/26 04:43:31;;;;;;;91.90;37.60;;;;;;;-1.29;100.00;100986.97;4995354;28;20453;-75
2023/01/26 04:45:58;;;;;;;99.40;37.40;;;;;;;-1.22;100.00;100983.25;4998151;28;21066;-75
2023/01/26 04:48:25;;;;;;;93.00;39.23;;;;;;;-1.35;100.00;100982.78;4997628;28;20495;-74
2023/01/26 04:50:55;;;;;;;92.23;36.93;;;;;;;-1.20;100.00;100984.09;5003866;28;20815;-75
2023/01/26 04:53:23;;;;;;;101.63;39.00;;;;;;;-1.25;100.00;100982.50;5003594;28;20545;-75
2023/01/26 04:55:50;;;;;;;94.73;35.83;;;;;;;-1.14;100.00;100977.78;5003240;28;20522;-75
2023/01/26 04:58:17;;;;;;;99.57;36.77;;;;;;;-1.14;100.00;100980.41;5003421;28;20500;-75
2023/01/26 05:00:45;;;;;;;88.40;36.13;;;;;;;-1.11;100.00;100984.69;5001903;28;20540;-77
2023/01/26 05:03:11;;;;;;;80.50;35.10;;;;;;;-1.18;100.00;100978.78;4995942;28;20875;-75
2023/01/26 05:05:38;;;;;;;97.67;36.63;;;;;;;-1.11;100.00;100979.44;4999062;28;20475;-75
2023/01/26 05:08:05;;;;;;;90.63;37.13;;;;;;;-1.01;100.00;100980.88;5000770;28;20452;-75
2023/01/26 05:10:34;;;;;;;89.07;36.80;;;;;;;-0.97;100.00;100977.28;5002952;28;20468;-76
2023/01/26 05:13:00;;;;;;;93.40;37.83;;;;;;;-1.03;100.00;100973.03;5003044;28;20483;-76
2023/01/26 05:15:27;;;;;;;96.77;39.13;;;;;;;-0.95;100.00;100973.66;5001289;28;20225;-77
2023/01/26 05:17:54;;;;;;;99.60;39.03;;;;;;;-0.90;100.00;100975.28;5001873;28;20545;-77
2023/01/26 05:20:20;;;;;;;101.70;37.43;;;;;;;-0.84;100.00;100973.31;5001607;28;20478;-76
2023/01/26 05:22:47;;;;;;;91.07;39.40;;;;;;;-0.91;100.00;100976.19;4988635;28;20448;-76
2023/01/26 05:25:14;;;;;;;82.13;35.93;;;;;;;-0.93;100.00;100973.63;5001984;28;20443;-76
2023/01/26 05:27:42;;;;;;;79.00;35.70;;;;;;;-1.04;100.00;100973.97;4999705;28;20460;-76
2023/01/26 05:30:10;;;;;;;82.83;33.53;;;;;;;-0.95;100.00;100978.06;5001853;28;20452;-75
2023/01/26 05:32:37;;;;;;;86.37;34.80;;;;;;;-0.96;100.00;100977.19;5003332;28;20448;-74
2023/01/26 05:35:04;;;;;;;103.33;36.87;;;;;;;-1.11;100.00;100982.06;5001853;28;20464;-74
2023/01/26 05:37:31;;;;;;;84.50;34.70;;;;;;;-0.99;100.00;100984.31;4998964;28;20687;-73
2023/01/26 05:39:58;;;;;;;86.43;35.23;;;;;;;-0.98;100.00;100984.25;4999367;28;20778;-74
2023/01/26 05:42:25;;;;;;;93.83;36.83;;;;;;;-1.14;100.00;100988.28;5002186;28;20483;-74
2023/01/26 05:44:53;;;;;;;83.23;36.43;;;;;;;-1.05;100.00;100980.13;5001355;28;20531;-74
2023/01/26 05:47:19;;;;;;;80.50;34.80;;;;;;;-1.04;100.00;100983.59;4983549;28;20513;-74
2023/01/26 05:49:46;;;;;;;88.17;35.53;;;;;;;-0.96;100.00;100979.81;4983345;28;20465;-75
2023/01/26 05:52:16;;;;;;;80.77;35.43;;;;;;;-1.04;100.00;100973.09;4982698;28;20547;-74
2023/01/26 05:54:43;;;;;;;89.73;35.30;;;;;;;-1.06;100.00;100972.28;4992813;28;20452;-76
2023/01/26 05:57:10;;;;;;;82.03;36.70;;;;;;;-1.17;100.00;100980.50;4994424;28;20507;-73
2023/01/26 05:59:37;;;;;;;87.70;36.27;;;;;;;-1.03;100.00;100974.81;4984911;28;20520;-74
2023/01/26 06:02:05;;;;;;;82.70;35.13;;;;;;;-0.94;100.00;100971.91;4996000;28;20487;-73
2023/01/26 06:04:32;;;;;;;85.03;34.13;;;;;;;-1.03;100.00;100980.06;4984743;28;20494;-74
2023/01/26 06:06:59;;;;;;;85.40;34.20;;;;;;;-1.05;100.00;100969.63;4999110;28;20550;-73
2023/01/26 06:09:26;;;;;;;88.45;36.00;;;;;;;-1.08;100.00;100984.59;5001700;28;20519;-74
2023/01/26 06:11:53;;;;;;;76.67;33.40;;;;;;;-1.01;100.00;100975.63;5000773;28;20303;-74
2023/01/26 06:14:19;;;;;;;81.20;33.13;;;;;;;-1.15;100.00;100978.69;5000206;28;20444;-80
2023/01/26 06:16:46;;;;;;;79.78;33.78;;;;;;;-1.00;100.00;100979.97;4994863;28;20472;-80
2023/01/26 06:19:14;;;;;;;79.37;32.57;;;;;;;-0.98;100.00;100983.41;4992627;28;20232;-74
2023/01/26 06:21:41;;;;;;;80.17;32.50;;;;;;;-0.87;100.00;100978.66;4985390;28;20477;-74
2023/01/26 06:24:08;;;;;;;71.43;31.07;;;;;;;-0.89;100.00;100980.47;4992421;28;20452;-74
2023/01/26 06:26:34;;;;;;;79.00;34.27;;;;;;;-0.85;100.00;100982.13;4997634;28;20482;-74
2023/01/26 06:29:02;;;;;;;75.00;33.80;;;;;;;-0.80;100.00;100985.47;4988532;28;20703;-73
2023/01/26 06:31:29;;;;;;;79.05;33.53;;;;;;;-0.69;100.00;100984.25;4992655;28;20487;-74
2023/01/26 06:33:56;;;;;;;73.40;31.43;;;;;;;-0.70;100.00;100986.00;5001345;28;20216;-75
2023/01/26 06:36:24;;;;;;;77.73;32.00;;;;;;;-0.83;100.00;100990.78;4998586;28;20468;-75
2023/01/26 06:38:52;;;;;;;70.03;30.43;;;;;;;-0.93;100.00;100997.25;5001353;28;20573;-74
2023/01/26 06:41:19;;;;;;;74.73;33.93;;;;;;;-0.83;100.00;100989.94;4996235;28;20546;-74
2023/01/26 06:43:47;;;;;;;75.03;31.83;;;;;;;-0.84;100.00;100996.09;4988006;28;20937;-74
2023/01/26 06:46:15;;;;;;;74.80;31.37;;;;;;;-0.77;100.00;100989.72;4992682;28;21082;-74
2023/01/26 06:48:42;;;;;;;73.07;32.50;;;;;;;-0.70;100.00;100993.88;5000808;28;20514;-74
2023/01/26 06:54:04;;;;;;;74.00;30.37;;;;;;;-0.78;100.00;100988.88;5096825;27;21237;-61
2023/01/26 06:56:31;;;;;;;69.93;29.90;;;;;;;-0.69;100.00;100984.25;5084418;27;20494;-61
2023/01/26 06:58:58;;;;;;;71.60;30.90;;;;;;;-0.64;100.00;100977.94;5077219;28;20478;-61
2023/01/26 07:01:26;;;;;;;59.53;30.83;;;;;;;-0.66;100.00;100973.63;5074650;28;20468;-59
2023/01/26 07:03:54;;;;;;;69.80;32.23;;;;;;;-0.59;100.00;100981.25;5074536;28;20465;-59
2023/01/26 07:06:21;;;;;;;71.13;31.80;;;;;;;-0.72;100.00;100981.72;5085481;28;20968;-61
2023/01/26 07:08:47;;;;;;;72.60;31.43;;;;;;;-0.68;100.00;100983.31;5076666;28;20460;-61
2023/01/26 07:11:16;;;;;;;71.33;31.43;;;;;;;-0.66;100.00;100981.50;5076153;28;20476;-61
2023/01/26 07:13:43;;;;;;;71.83;29.00;;;;;;;-0.61;100.00;100985.72;5077131;28;20536;-61
2023/01/26 07:16:11;;;;;;;63.70;29.80;;;;;;;-0.54;100.00;100980.22;5092991;28;20471;-61
2023/01/26 07:18:38;;;;;;;76.03;32.70;;;;;;;-0.53;100.00;100976.72;5083510;28;20464;-59
2023/01/26 07:21:06;;;;;;;73.07;31.33;;;;;;;-0.53;100.00;100981.97;5076576;28;20472;-59
2023/01/26 07:23:35;;;;;;;76.73;32.10;;;;;;;-0.54;100.00;100980.22;5074179;28;20456;-61
2023/01/26 07:26:01;;;;;;;56.63;27.83;;;;;;;-0.41;100.00;100981.53;5089913;28;20475;-61
2023/01/26 07:28:30;;;;;;;63.03;29.33;;;;;;;-0.37;100.00;100983.13;5088970;28;20448;-59
2023/01/26 07:30:57;;;;;;;66.30;30.07;;;;;;;-0.36;100.00;100984.00;5075176;28;20478;-62
2023/01/26 07:33:24;;;;;;;64.10;27.73;;;;;;;-0.33;100.00;100982.16;5076157;28;20479;-59
2023/01/26 07:35:53;;;;;;;70.07;29.67;;;;;;;-0.29;100.00;100988.16;5075831;28;20502;-61
2023/01/26 07:38:19;;;;;;;73.47;30.20;;;;;;;-0.26;100.00;100995.91;5076916;28;20865;-59
2023/01/26 07:40:46;;;;;;;69.23;30.90;;;;;;;-0.23;100.00;100987.91;5075391;28;20942;-60
2023/01/26 07:43:13;;;;;;;64.60;28.40;;;;;;;-0.18;100.00;100986.00;5075961;28;20474;-60
2023/01/26 07:45:45;;;;;;;66.27;30.80;;;;;;;-0.17;100.00;100992.97;5075030;28;20472;-60
2023/01/26 07:48:11;;;;;;;71.50;31.43;;;;;;;-0.23;100.00;100988.75;5074144;28;20464;-60
2023/01/26 07:50:38;;;;;;;69.50;28.50;;;;;;;-0.19;100.00;100994.81;5075868;28;20472;-60
2023/01/26 07:53:05;;;;;;;65.70;29.23;;;;;;;-0.11;100.00;100987.47;5075466;28;20506;-60
2023/01/26 07:55:32;;;;;;;66.53;29.80;;;;;;;-0.18;100.00;100987.78;5074757;28;20490;-60
2023/01/26 07:57:59;;;;;;;68.33;29.03;;;;;;;-0.20;100.00;100987.81;5075619;28;20463;-60
2023/01/26 08:00:25;;;;;;;64.10;28.57;;;;;;;-0.20;100.00;100993.91;5074902;28;20453;-60
2023/01/26 08:02:54;;;;;;;59.03;27.30;;;;;;;-0.21;100.00;100993.97;5075604;28;20520;-60
2023/01/26 08:05:21;;;;;;;56.57;25.47;;;;;;;-0.18;100.00;100993.88;5062731;28;20807;-60
2023/01/26 08:07:48;;;;;;;54.50;25.83;;;;;;;-0.15;100.00;100993.78;5062035;28;20440;-60
2023/01/26 08:10:15;;;;;;;64.37;27.10;;;;;;;-0.27;100.00;100994.19;5061410;28;20954;-60
2023/01/26 08:12:41;;;;;;;67.00;28.03;;;;;;;-0.12;100.00;100995.41;5062924;28;20477;-60
2023/01/26 08:15:09;;;;;;;63.20;27.57;;;;;;;-0.06;100.00;100990.81;5061717;28;20461;-60
2023/01/26 08:17:37;;;;;;;68.27;29.07;;;;;;;0.00;100.00;100997.66;5061928;28;20853;-60
2023/01/26 08:20:08;;;;;;;56.93;27.60;;;;;;;0.14;100.00;100998.00;5061923;28;20457;-59
2023/01/26 08:22:35;;;;;;;64.93;29.80;;;;;;;0.21;100.00;100996.00;5030548;28;20548;-60
2023/01/26 08:25:02;;;;;;;61.07;27.83;;;;;;;0.28;100.00;100996.63;5033838;28;20488;-60
2023/01/26 08:27:29;;;;;;;64.53;28.40;;;;;;;0.38;100.00;101000.63;5042236;28;20828;-61
2023/01/26 08:29:56;;;;;;;58.10;26.73;;;;;;;0.32;100.00;101006.97;5041327;28;20455;-60
2023/01/26 08:32:23;;;;;;;61.60;28.13;;;;;;;0.47;100.00;101013.44;5032451;28;20479;-60
2023/01/26 08:34:50;;;;;;;53.80;25.50;;;;;;;0.44;100.00;101007.44;5022517;28;20435;-60
2023/01/26 08:37:18;;;;;;;57.93;27.63;;;;;;;0.35;100.00;101014.75;5044409;28;20468;-60
2023/01/26 08:39:45;;;;;;;67.53;28.80;;;;;;;0.28;100.00;101009.75;5061494;28;20453;-60
2023/01/26 08:42:12;;;;;;;59.80;25.20;;;;;;;0.27;100.00;101003.66;5068673;28;20539;-60
2023/01/26 08:44:39;;;;;;;59.57;27.80;;;;;;;0.35;100.00;101004.25;5080600;28;20455;-60
2023/01/26 08:47:06;;;;;;;57.30;26.47;;;;;;;0.35;100.00;101014.75;5081219;28;20480;-61
2023/01/26 08:49:33;;;;;;;53.80;25.30;;;;;;;0.10;100.00;101016.56;5081788;28;20459;-60
2023/01/26 08:52:00;;;;;;;66.27;27.73;;;;;;;0.30;100.00;101011.44;5080537;28;20588;-60
2023/01/26 08:54:28;;;;;;;61.17;27.73;;;;;;;0.12;100.00;101010.34;5081397;28;20475;-59
2023/01/26 08:56:55;;;;;;;71.00;29.87;;;;;;;0.37;100.00;101017.34;5081643;28;20476;-59
2023/01/26 08:59:22;;;;;;;64.73;26.67;;;;;;;0.25;100.00;101013.38;5064207;28;20442;-60
2023/01/26 09:01:49;;;;;;;63.87;25.57;;;;;;;0.38;100.00;101019.03;5059194;28;20491;-60
2023/01/26 09:04:16;;;;;;;55.57;26.73;;;;;;;0.24;100.00;101011.66;5061928;28;20441;-60
2023/01/26 09:06:43;;;;;;;59.53;25.77;;;;;;;0.40;100.00;101009.34;5061297;28;20484;-60
2023/01/26 09:09:12;;;;;;;59.00;25.20;;;;;;;0.20;100.00;101009.22;5060684;28;20544;-60
2023/01/26 09:11:40;;;;;;;57.63;26.00;;;;;;;0.41;100.00;101013.66;5060918;28;20476;-60
2023/01/26 09:14:07;;;;;;;54.43;25.53;;;;;;;0.46;100.00;101018.78;5061303;28;20465;-60
2023/01/26 09:16:34;;;;;;;55.00;24.37;;;;;;;0.61;100.00;101026.09;5058970;28;20480;-60
2023/01/26 09:19:00;;;;;;;57.67;27.10;;;;;;;0.48;100.00;101030.94;5061154;28;20463;-61
2023/01/26 09:21:27;;;;;;;58.97;27.20;;;;;;;0.54;100.00;101024.59;5060209;28;20507;-60
2023/01/26 09:23:56;;;;;;;54.13;25.10;;;;;;;0.57;100.00;101019.22;5041194;28;20431;-60
2023/01/26 09:26:23;;;;;;;54.83;24.67;;;;;;;0.55;100.00;101021.03;5040774;28;20501;-60
2023/01/26 09:28:52;;;;;;;61.67;26.87;;;;;;;0.74;100.00;101019.41;5051184;28;20735;-60
2023/01/26 09:31:19;;;;;;;61.17;26.63;;;;;;;0.93;100.00;101014.31;5059568;28;20476;-59
2023/01/26 09:33:45;;;;;;;57.50;25.30;;;;;;;0.93;100.00;101016.09;5061051;28;20473;-61
2023/01/26 09:36:12;;;;;;;54.63;27.40;;;;;;;0.99;100.00;101018.50;5060370;28;20510;-60
2023/01/26 09:38:40;;;;;;;59.33;28.10;;;;;;;1.05;100.00;101020.03;5060402;28;20453;-61
2023/01/26 09:41:16;;;;;;;62.37;27.70;;;;;;;1.06;100.00;101024.34;5059166;28;20994;-60
2023/01/26 09:43:44;;;;;;;58.23;26.40;;;;;;;0.93;100.00;101021.34;5078759;28;20436;-60
2023/01/26 09:46:22;;;;;;;56.80;24.57;;;;;;;1.06;100.00;101027.88;5072423;28;20598;-60
2023/01/26 09:48:56;;;;;;;55.83;25.23;;;;;;;1.07;100.00;101023.44;5060307;28;21052;-60
2023/01/26 09:51:26;;;;;;;53.67;23.70;;;;;;;1.01;100.00;101019.28;5060112;28;20472;-59
2023/01/26 09:53:54;;;;;;;47.37;24.20;;;;;;;0.95;100.00;101022.16;5079198;28;21012;-60
2023/01/26 09:56:27;;;;;;;57.10;24.60;;;;;;;0.81;100.00;101025.31;5080176;28;20468;-61
2023/01/26 09:58:56;;;;;;;51.80;23.90;;;;;;;0.78;100.00;101017.53;5080528;28;20452;-60
2023/01/26 10:01:30;;;;;;;51.17;24.23;;;;;;;0.71;100.00;101016.94;5057748;28;20536;-60
2023/01/26 10:04:01;;;;;;;50.60;24.43;;;;;;;0.69;100.00;101018.75;5060880;28;20440;-60
2023/01/26 10:06:30;;;;;;;53.27;25.23;;;;;;;0.72;100.00;101016.00;5060201;28;20473;-60
2023/01/26 10:09:01;;;;;;;52.90;23.67;;;;;;;0.60;100.00;101016.47;5059906;28;20449;-60
2023/01/26 10:11:32;;;;;;;63.60;28.97;;;;;;;0.78;100.00;101011.41;5059640;28;20552;-59
2023/01/26 10:14:02;;;;;;;53.40;24.30;;;;;;;0.57;100.00;101000.78;5061051;28;20481;-60
2023/01/26 10:16:33;;;;;;;53.70;24.17;;;;;;;0.81;100.00;101001.63;5059469;28;20507;-61
2023/01/26 10:19:03;;;;;;;52.90;25.37;;;;;;;0.94;100.00;100999.38;5059592;28;20456;-60
2023/01/26 10:21:33;;;;;;;58.10;25.13;;;;;;;0.90;100.00;101005.66;5058793;28;20473;-61
2023/01/26 10:24:01;;;;;;;65.47;26.93;;;;;;;1.06;100.00;100998.00;5060091;28;20433;-60
2023/01/26 10:26:31;;;;;;;48.03;23.30;;;;;;;1.17;100.00;100994.97;5059931;28;20538;-60
2023/01/26 10:28:58;;;;;;;50.70;23.93;;;;;;;1.24;100.00;100999.06;5060968;28;20465;-60
2023/01/26 10:31:27;;;;;;;54.77;24.53;;;;;;;1.20;100.00;101000.97;5079502;28;20484;-60
2023/01/26 10:33:56;;;;;;;49.57;24.50;;;;;;;1.10;100.00;100997.84;5080495;28;20850;-60
2023/01/26 10:36:24;;;;;;;55.13;23.40;;;;;;;0.96;100.00;100999.31;5076070;28;21064;-60
2023/01/26 10:38:51;;;;;;;58.20;26.73;;;;;;;1.10;100.00;100992.56;5060766;28;20469;-61
2023/01/26 10:41:26;;;;;;;51.47;23.40;;;;;;;1.09;100.00;100997.91;5079779;28;20468;-60
2023/01/26 10:43:55;;;;;;;48.27;24.30;;;;;;;1.15;100.00;100994.16;5060319;28;20551;-60
2023/01/26 10:46:27;;;;;;;47.73;23.10;;;;;;;1.24;100.00;100992.00;5059478;28;20477;-59
2023/01/26 10:48:57;;;;;;;48.90;23.93;;;;;;;1.08;100.00;100991.78;5059268;28;20452;-59
2023/01/26 10:51:28;;;;;;;52.47;22.87;;;;;;;1.20;100.00;100985.16;5058227;28;20508;-59
2023/01/26 10:54:19;;;;;;;49.70;26.53;;;;;;;1.34;100.00;100994.25;5059436;28;20580;-59
2023/01/26 10:56:48;;;;;;;49.87;23.97;;;;;;;1.40;100.00;100988.75;5059403;28;20473;-59
2023/01/26 10:59:21;;;;;;;51.77;25.63;;;;;;;1.50;100.00;100984.81;5059363;28;20453;-60
2023/01/26 11:01:52;;;;;;;47.33;22.70;;;;;;;1.44;100.00;100982.44;5057824;28;20538;-59
2023/01/26 11:04:21;;;;;;;50.47;23.93;;;;;;;1.53;100.00;100976.78;5060325;28;20430;-59
2023/01/26 11:06:48;;;;;;;55.77;25.07;;;;;;;1.28;100.00;100971.66;5058845;28;20480;-60
2023/01/26 11:09:19;;;;;;;45.33;23.00;;;;;;;1.34;100.00;100973.19;5059954;28;20480;-59
2023/01/26 11:11:56;;;;;;;48.57;23.60;;;;;;;1.38;100.00;100970.38;5058818;28;20932;-60
2023/01/26 11:14:23;;;;;;;51.07;23.97;;;;;;;1.39;100.00;100973.84;5050653;28;20488;-60
2023/01/26 11:16:53;;;;;;;46.87;23.43;;;;;;;1.20;100.00;100977.28;5059135;28;20523;-59
2023/01/26 11:19:55;;;;;;;47.50;22.77;;;;;;;1.13;100.00;100965.28;5059721;28;20445;-60
2023/01/26 11:22:29;;;;;;;45.53;20.93;;;;;;;1.47;100.00;100977.03;5058585;28;20476;-60
2023/01/26 11:25:02;;;;;;;52.40;22.53;;;;;;;1.65;100.00;100970.13;5059445;28;20436;-59
2023/01/26 11:27:39;;;;;;;37.33;19.87;;;;;;;1.85;100.00;100969.25;5058874;28;20604;-61
2023/01/26 11:30:40;;;;;;;50.13;22.57;;;;;;;1.59;100.00;100967.75;5048684;28;20457;-59
2023/01/26 11:33:16;;;;;;;41.97;22.13;;;;;;;1.77;100.00;100964.34;5076060;28;20478;-61
2023/01/26 11:35:52;;;;;;;49.90;24.93;;;;;;;1.82;100.00;100966.75;5078595;28;20521;-61
2023/01/26 11:38:28;;;;;;;40.83;20.77;;;;;;;1.97;100.00;100962.59;5063242;28;20472;-61
2023/01/26 11:41:02;;;;;;;38.87;18.03;;;;;;;1.74;100.00;100958.34;5063462;28;20476;-60
2023/01/26 11:43:46;;;;;;;36.97;19.03;;;;;;;1.80;100.00;100947.50;5063547;28;20425;-61
2023/01/26 11:46:22;;;;;;;41.83;18.00;;;;;;;1.92;100.00;100951.41;5062569;28;20522;-61
2023/01/26 11:48:56;;;;;;;42.97;20.70;;;;;;;2.00;100.00;100951.91;5061400;28;20506;-60
2023/01/26 11:51:32;;;;;;;32.97;17.00;;;;;;;1.62;100.00;100941.28;5051897;28;20468;-60
2023/01/26 11:54:17;;;;;;;41.30;19.53;;;;;;;1.66;100.00;100946.31;5062877;28;20615;-60
2023/01/26 11:56:49;;;;;;;39.70;18.20;;;;;;;1.63;100.00;100945.59;5060614;28;21031;-59
2023/01/26 11:59:18;;;;;;;38.80;19.10;;;;;;;1.55;100.00;100939.84;5062711;28;20456;-59
2023/01/26 12:01:49;;;;;;;37.23;18.57;;;;;;;1.28;100.00;100933.00;5071822;28;20476;-59